Time;durP1;ratioP1;P1;durP2;ratioP2;P2;SDS_P1;SDS_P2;PMS_P1;PMS_P2;Temp;Humidity;BMP_temperature;BMP_pressure;BME280_temperature;BME280_humidity;BME280_pressure;Samples;Min_cycle;Max_cycle;Signal;HPM_P1;HPM_P2
2022/03/16 00:00:18;;;;;;;62.67;34.33;;;;;;;;;;4915223;29;20052;-69
2022/03/16 00:02:45;;;;;;;62.95;32.53;;;;;;;;;;4914930;29;20258;-70
2022/03/16 00:05:12;;;;;;;62.28;34.53;;;;;;;;;;4915486;29;20522;-70
2022/03/16 00:07:39;;;;;;;57.70;32.92;;;;;;;;;;4916876;29;20049;-69
2022/03/16 00:10:07;;;;;;;63.22;33.95;;;;;;;;;;4918613;29;20064;-70
2022/03/16 00:12:38;;;;;;;66.45;35.05;;;;;;;;;;4918699;29;20059;-70
2022/03/16 00:15:05;;;;;;;65.43;35.30;;;;;;;;;;4918785;29;20107;-70
2022/03/16 00:17:32;;;;;;;64.93;34.55;;;;;;;;;;4898803;29;20083;-69
2022/03/16 00:19:59;;;;;;;66.57;33.72;;;;;;;;;;4911039;29;20107;-70
2022/03/16 00:22:26;;;;;;;65.40;33.60;;;;;;;;;;4918725;29;20111;-70
2022/03/16 00:24:52;;;;;;;68.13;35.45;;;;;;;;;;4917548;29;20460;-70
2022/03/16 00:27:19;;;;;;;74.05;35.85;;;;;;;;;;4918688;29;20488;-70
2022/03/16 00:29:45;;;;;;;71.60;35.53;;;;;;;;;;4918302;29;20048;-70
2022/03/16 00:32:12;;;;;;;71.70;37.05;;;;;;;;;;4918555;29;20099;-70
2022/03/16 00:34:39;;;;;;;67.45;33.42;;;;;;;;;;4918477;29;20108;-70
2022/03/16 00:37:05;;;;;;;70.53;35.58;;;;;;;;;;4918497;29;20052;-70
2022/03/16 00:39:32;;;;;;;68.13;35.00;;;;;;;;;;4918234;29;20115;-70
2022/03/16 00:41:58;;;;;;;67.20;34.70;;;;;;;;;;4918130;29;20052;-70
2022/03/16 00:44:26;;;;;;;72.43;36.38;;;;;;;;;;4901492;29;20507;-70
2022/03/16 00:46:53;;;;;;;63.40;35.15;;;;;;;;;;4918369;29;20058;-70
2022/03/16 00:49:20;;;;;;;66.57;35.70;;;;;;;;;;4918157;29;20111;-70
2022/03/16 00:51:46;;;;;;;67.22;35.22;;;;;;;;;;4917665;29;20048;-70
2022/03/16 00:54:13;;;;;;;67.97;35.45;;;;;;;;;;4918444;29;20044;-70
2022/03/16 00:56:40;;;;;;;70.57;36.97;;;;;;;;;;4918097;29;20566;-70
2022/03/16 00:59:06;;;;;;;67.93;35.45;;;;;;;;;;4917823;29;20495;-70
2022/03/16 01:01:33;;;;;;;70.05;35.28;;;;;;;;;;4918024;29;20060;-70
2022/03/16 01:04:00;;;;;;;71.88;36.30;;;;;;;;;;4918209;29;20127;-70
2022/03/16 01:06:26;;;;;;;74.70;36.58;;;;;;;;;;4901151;29;20048;-70
2022/03/16 01:08:53;;;;;;;76.35;38.50;;;;;;;;;;4917924;29;20056;-70
2022/03/16 01:11:20;;;;;;;68.53;34.45;;;;;;;;;;4917455;29;20471;-70
2022/03/16 01:13:46;;;;;;;73.03;36.13;;;;;;;;;;4917978;29;20108;-69
2022/03/16 01:16:13;;;;;;;79.10;36.65;;;;;;;;;;4917672;29;20060;-70
2022/03/16 01:18:40;;;;;;;68.25;35.92;;;;;;;;;;4917453;29;20123;-70
2022/03/16 01:21:07;;;;;;;77.07;35.80;;;;;;;;;;4916803;29;20056;-69
2022/03/16 01:23:34;;;;;;;69.20;35.50;;;;;;;;;;4917437;29;20095;-70
2022/03/16 01:26:02;;;;;;;67.95;35.00;;;;;;;;;;4916249;29;20064;-69
2022/03/16 01:28:29;;;;;;;68.57;34.85;;;;;;;;;;4916685;29;20124;-70
2022/03/16 01:30:57;;;;;;;76.85;37.10;;;;;;;;;;4917457;29;20052;-70
2022/03/16 01:33:24;;;;;;;130.90;60.85;;;;;;;;;;4917323;29;20048;-70
2022/03/16 01:35:51;;;;;;;97.95;46.00;;;;;;;;;;4917757;29;20052;-69
2022/03/16 01:38:17;;;;;;;73.90;36.17;;;;;;;;;;4917353;29;20499;-70
2022/03/16 01:40:45;;;;;;;91.72;44.15;;;;;;;;;;4916974;29;20055;-70
2022/03/16 01:43:11;;;;;;;81.10;38.80;;;;;;;;;;4916994;29;20507;-70
2022/03/16 01:45:47;;;;;;;73.95;36.38;;;;;;;;;;4917340;29;20072;-70
2022/03/16 01:48:14;;;;;;;75.85;37.45;;;;;;;;;;4915998;29;20059;-70
2022/03/16 01:50:40;;;;;;;71.93;35.25;;;;;;;;;;4916935;29;20100;-70
2022/03/16 01:53:07;;;;;;;73.00;36.20;;;;;;;;;;4916932;29;20084;-70
2022/03/16 01:55:34;;;;;;;70.05;36.15;;;;;;;;;;4917221;29;20099;-69
2022/03/16 01:58:00;;;;;;;70.88;36.25;;;;;;;;;;4917271;29;20111;-69
2022/03/16 02:00:27;;;;;;;71.90;36.58;;;;;;;;;;4915687;29;20044;-70
2022/03/16 02:02:53;;;;;;;72.50;36.92;;;;;;;;;;4916720;29;20060;-69
2022/03/16 02:05:20;;;;;;;73.95;36.60;;;;;;;;;;4916826;29;20083;-69
2022/03/16 02:07:47;;;;;;;73.43;35.10;;;;;;;;;;4916579;29;20052;-70
2022/03/16 02:10:13;;;;;;;75.25;35.55;;;;;;;;;;4915731;29;20103;-70
2022/03/16 02:12:50;;;;;;;81.93;36.67;;;;;;;;;;4915376;29;20111;-69
2022/03/16 02:15:18;;;;;;;77.88;37.35;;;;;;;;;;4916875;29;20123;-70
2022/03/16 02:17:45;;;;;;;74.75;35.42;;;;;;;;;;4916506;29;20096;-70
2022/03/16 02:20:12;;;;;;;80.43;37.10;;;;;;;;;;4916430;29;20056;-69
2022/03/16 02:22:52;;;;;;;78.03;36.13;;;;;;;;;;4916461;29;20048;-69
2022/03/16 02:25:20;;;;;;;79.63;37.08;;;;;;;;;;4916789;29;20489;-69
2022/03/16 02:27:47;;;;;;;81.82;37.55;;;;;;;;;;4916530;29;20073;-69
2022/03/16 02:30:13;;;;;;;70.55;36.03;;;;;;;;;;4916086;29;20048;-69
2022/03/16 02:32:40;;;;;;;81.72;36.83;;;;;;;;;;4915486;29;20467;-69
2022/03/16 02:35:07;;;;;;;78.68;37.25;;;;;;;;;;4915941;29;20044;-69
2022/03/16 02:37:38;;;;;;;76.03;36.17;;;;;;;;;;4916474;29;20044;-69
2022/03/16 02:40:07;;;;;;;75.57;35.70;;;;;;;;;;4915903;29;20103;-69
2022/03/16 02:42:34;;;;;;;71.88;35.53;;;;;;;;;;4916103;29;20059;-70
2022/03/16 02:45:01;;;;;;;79.82;37.50;;;;;;;;;;4916191;29;20048;-69
2022/03/16 02:47:28;;;;;;;71.38;36.05;;;;;;;;;;4916082;29;20484;-70
2022/03/16 02:49:54;;;;;;;86.85;38.50;;;;;;;;;;4915769;29;20495;-68
2022/03/16 02:52:24;;;;;;;85.70;39.13;;;;;;;;;;4915942;29;20048;-70
2022/03/16 02:54:50;;;;;;;76.55;36.47;;;;;;;;;;4916085;29;20452;-69
2022/03/16 02:57:17;;;;;;;82.75;36.25;;;;;;;;;;4915825;29;20052;-70
2022/03/16 02:59:44;;;;;;;84.35;37.58;;;;;;;;;;4915679;29;20055;-70
2022/03/16 03:02:11;;;;;;;78.70;37.45;;;;;;;;;;4896818;29;20476;-70
2022/03/16 03:04:38;;;;;;;82.53;37.58;;;;;;;;;;4897158;29;20543;-70
2022/03/16 03:07:05;;;;;;;84.75;36.67;;;;;;;;;;4905876;29;20048;-68
2022/03/16 03:09:32;;;;;;;89.32;38.70;;;;;;;;;;4915725;29;20060;-70
2022/03/16 03:11:59;;;;;;;83.18;38.33;;;;;;;;;;4915674;29;20051;-70
2022/03/16 03:14:29;;;;;;;83.07;36.78;;;;;;;;;;4915615;29;20423;-69
2022/03/16 03:16:57;;;;;;;88.47;40.05;;;;;;;;;;4915772;29;20329;-70
2022/03/16 03:19:24;;;;;;;82.57;37.95;;;;;;;;;;4915562;29;20056;-69
2022/03/16 03:21:50;;;;;;;93.53;38.97;;;;;;;;;;4916014;29;20107;-70
2022/03/16 03:24:17;;;;;;;91.13;38.13;;;;;;;;;;4915620;29;20119;-70
2022/03/16 03:26:44;;;;;;;89.80;39.72;;;;;;;;;;4914577;29;20499;-69
2022/03/16 03:29:11;;;;;;;93.88;37.88;;;;;;;;;;4915723;29;20111;-69
2022/03/16 03:31:37;;;;;;;80.47;37.28;;;;;;;;;;4915470;29;20135;-70
2022/03/16 03:34:04;;;;;;;93.72;39.75;;;;;;;;;;4915483;29;20052;-69
2022/03/16 03:36:31;;;;;;;92.05;39.95;;;;;;;;;;4915421;29;20080;-69
2022/03/16 03:38:57;;;;;;;85.05;38.70;;;;;;;;;;4915474;29;20452;-71
2022/03/16 03:41:24;;;;;;;87.03;36.83;;;;;;;;;;4914818;29;20052;-69
2022/03/16 03:43:50;;;;;;;83.68;37.17;;;;;;;;;;4933436;29;20111;-70
2022/03/16 03:46:17;;;;;;;93.03;36.63;;;;;;;;;;4919484;29;20044;-69
2022/03/16 03:48:43;;;;;;;89.88;38.60;;;;;;;;;;4919552;29;20080;-69
2022/03/16 03:51:10;;;;;;;85.72;38.42;;;;;;;;;;4918824;29;20099;-69
2022/03/16 03:53:37;;;;;;;90.10;37.97;;;;;;;;;;4919187;29;20055;-69
2022/03/16 03:56:04;;;;;;;97.55;40.63;;;;;;;;;;4919067;29;20048;-70
2022/03/16 03:58:30;;;;;;;95.00;39.33;;;;;;;;;;4918193;29;20107;-69
2022/03/16 04:00:57;;;;;;;89.15;39.60;;;;;;;;;;4919063;29;20048;-69
2022/03/16 04:03:25;;;;;;;95.82;39.47;;;;;;;;;;4919193;29;20131;-69
2022/03/16 04:05:52;;;;;;;95.82;39.97;;;;;;;;;;4919086;29;20086;-69
2022/03/16 04:08:18;;;;;;;93.13;38.05;;;;;;;;;;4918847;29;20056;-69
2022/03/16 04:10:45;;;;;;;92.80;38.85;;;;;;;;;;4918570;29;20052;-70
2022/03/16 04:13:11;;;;;;;89.43;41.83;;;;;;;;;;4918812;29;20115;-69
2022/03/16 04:15:38;;;;;;;85.63;39.58;;;;;;;;;;4919042;29;20500;-69
2022/03/16 04:18:05;;;;;;;90.55;40.30;;;;;;;;;;4918767;29;20143;-69
2022/03/16 04:20:31;;;;;;;90.20;39.25;;;;;;;;;;4918163;29;20504;-69
2022/03/16 04:22:58;;;;;;;87.38;39.25;;;;;;;;;;4918696;29;20095;-70
2022/03/16 04:25:24;;;;;;;87.68;38.75;;;;;;;;;;4918726;29;20074;-69
2022/03/16 04:27:51;;;;;;;93.10;38.75;;;;;;;;;;4918575;29;20119;-70
2022/03/16 04:30:18;;;;;;;88.90;38.40;;;;;;;;;;4918543;29;20103;-70
2022/03/16 04:32:44;;;;;;;83.53;38.00;;;;;;;;;;4918500;29;20107;-71
2022/03/16 04:35:11;;;;;;;91.10;38.88;;;;;;;;;;4918390;29;20040;-71
2022/03/16 04:37:37;;;;;;;85.85;37.30;;;;;;;;;;4918277;29;20108;-70
2022/03/16 04:40:04;;;;;;;87.18;37.65;;;;;;;;;;4918502;29;20063;-70
2022/03/16 04:42:31;;;;;;;87.20;39.05;;;;;;;;;;4918376;29;20048;-70
2022/03/16 04:44:57;;;;;;;87.82;37.50;;;;;;;;;;4919208;29;20048;-71
2022/03/16 04:47:24;;;;;;;90.38;37.72;;;;;;;;;;4918358;29;20052;-70
2022/03/16 04:49:51;;;;;;;92.03;39.80;;;;;;;;;;4918175;29;20119;-70
2022/03/16 04:52:17;;;;;;;96.90;38.78;;;;;;;;;;4918292;29;20123;-69
2022/03/16 04:54:44;;;;;;;89.97;39.38;;;;;;;;;;4917514;29;20044;-70
2022/03/16 04:57:10;;;;;;;96.72;39.00;;;;;;;;;;4918573;29;20052;-70
2022/03/16 04:59:37;;;;;;;90.13;39.25;;;;;;;;;;4918282;29;20485;-71
2022/03/16 05:02:04;;;;;;;86.60;38.38;;;;;;;;;;4941453;23;20327;-68
2022/03/16 05:04:31;;;;;;;83.13;39.55;;;;;;;;;;4937193;29;20052;-69
2022/03/16 05:06:58;;;;;;;92.75;38.10;;;;;;;;;;4936845;29;20055;-69
2022/03/16 05:09:24;;;;;;;84.60;37.85;;;;;;;;;;4937050;29;20059;-70
2022/03/16 05:11:51;;;;;;;90.15;39.53;;;;;;;;;;4936421;29;20047;-70
2022/03/16 05:14:18;;;;;;;83.30;39.83;;;;;;;;;;4936884;29;20056;-70
2022/03/16 05:16:44;;;;;;;88.32;39.60;;;;;;;;;;4936732;29;20432;-69
2022/03/16 05:19:11;;;;;;;85.47;40.00;;;;;;;;;;4927773;29;20563;-70
2022/03/16 05:21:38;;;;;;;90.80;40.65;;;;;;;;;;4934651;29;20060;-70
2022/03/16 05:24:05;;;;;;;89.22;40.20;;;;;;;;;;4935487;29;20055;-69
2022/03/16 05:26:31;;;;;;;88.43;40.80;;;;;;;;;;4936799;29;20099;-69
2022/03/16 05:28:58;;;;;;;90.40;39.50;;;;;;;;;;4936737;29;20499;-71
2022/03/16 05:31:25;;;;;;;90.93;40.75;;;;;;;;;;4930503;29;20060;-69
2022/03/16 05:33:51;;;;;;;84.18;38.95;;;;;;;;;;4926592;29;20118;-70
2022/03/16 05:36:18;;;;;;;81.47;38.05;;;;;;;;;;4927641;29;20850;-69
2022/03/16 05:38:44;;;;;;;89.30;38.72;;;;;;;;;;4925052;29;20059;-68
2022/03/16 05:41:11;;;;;;;80.93;37.47;;;;;;;;;;4926584;29;20064;-70
2022/03/16 05:43:38;;;;;;;80.95;37.03;;;;;;;;;;4925698;29;20095;-69
2022/03/16 05:46:05;;;;;;;76.95;38.22;;;;;;;;;;4927262;29;20043;-69
2022/03/16 05:48:32;;;;;;;79.43;36.60;;;;;;;;;;4926543;29;20052;-69
2022/03/16 05:50:58;;;;;;;79.53;36.70;;;;;;;;;;4925141;29;20158;-69
2022/03/16 05:53:25;;;;;;;76.85;34.40;;;;;;;;;;4917076;29;20104;-67
2022/03/16 05:55:51;;;;;;;85.78;36.92;;;;;;;;;;4917097;29;20045;-68
2022/03/16 05:58:18;;;;;;;81.53;36.80;;;;;;;;;;4917482;29;20067;-69
2022/03/16 06:00:45;;;;;;;96.13;36.72;;;;;;;;;;4926443;29;20578;-69
2022/03/16 06:03:11;;;;;;;83.07;35.65;;;;;;;;;;4931692;29;20066;-70
2022/03/16 06:05:38;;;;;;;81.05;35.95;;;;;;;;;;4935795;29;20044;-69
2022/03/16 06:08:05;;;;;;;78.05;35.15;;;;;;;;;;4936080;29;20111;-69
2022/03/16 06:10:31;;;;;;;79.32;35.25;;;;;;;;;;4935899;29;20487;-68
2022/03/16 06:13:00;;;;;;;72.55;33.85;;;;;;;;;;4935691;29;20063;-70
2022/03/16 06:15:28;;;;;;;73.07;33.67;;;;;;;;;;4935727;29;20075;-70
2022/03/16 06:17:56;;;;;;;74.13;34.45;;;;;;;;;;4936300;29;20497;-69
2022/03/16 06:20:24;;;;;;;69.75;33.22;;;;;;;;;;4935820;29;20245;-68
2022/03/16 06:22:51;;;;;;;76.80;35.33;;;;;;;;;;4926191;29;20052;-69
2022/03/16 06:25:18;;;;;;;83.00;35.40;;;;;;;;;;4935527;29;20044;-69
2022/03/16 06:27:45;;;;;;;82.80;34.83;;;;;;;;;;4925524;29;20103;-69
2022/03/16 06:30:11;;;;;;;91.78;35.50;;;;;;;;;;4916282;29;20404;-70
2022/03/16 06:32:38;;;;;;;86.97;35.13;;;;;;;;;;4916544;29;20396;-68
2022/03/16 06:35:05;;;;;;;78.22;35.28;;;;;;;;;;4916395;29;20108;-69
2022/03/16 06:37:32;;;;;;;72.63;33.22;;;;;;;;;;4916484;29;20052;-67
2022/03/16 06:39:59;;;;;;;64.50;31.70;;;;;;;;;;4916251;29;20420;-69
2022/03/16 06:42:26;;;;;;;63.53;31.65;;;;;;;;;;4916221;29;20059;-69
2022/03/16 06:44:52;;;;;;;57.28;29.45;;;;;;;;;;4916145;29;20448;-68
2022/03/16 06:47:19;;;;;;;62.88;30.63;;;;;;;;;;4916432;29;20483;-68
2022/03/16 06:49:45;;;;;;;60.78;30.42;;;;;;;;;;4915255;29;20135;-68
2022/03/16 06:52:12;;;;;;;60.45;32.28;;;;;;;;;;4914148;29;20060;-68
2022/03/16 06:54:39;;;;;;;64.72;32.60;;;;;;;;;;4914249;29;20052;-68
2022/03/16 06:57:06;;;;;;;63.40;32.10;;;;;;;;;;4914013;29;20107;-68
2022/03/16 06:59:52;;;;;;;62.97;32.00;;;;;;;;;;4914057;29;20067;-69
2022/03/16 07:02:19;;;;;;;61.63;31.35;;;;;;;;;;4913805;29;20499;-68
2022/03/16 07:04:45;;;;;;;60.63;32.33;;;;;;;;;;4913599;29;20518;-69
2022/03/16 07:07:12;;;;;;;54.90;31.20;;;;;;;;;;4914061;29;20051;-69
2022/03/16 07:09:38;;;;;;;55.60;29.10;;;;;;;;;;4913605;29;20471;-68
2022/03/16 07:12:06;;;;;;;58.45;31.33;;;;;;;;;;4913683;29;20052;-67
2022/03/16 07:14:32;;;;;;;56.55;30.83;;;;;;;;;;4914015;29;20048;-67
2022/03/16 07:17:00;;;;;;;55.10;29.60;;;;;;;;;;4912943;29;20048;-68
2022/03/16 07:19:28;;;;;;;56.42;31.27;;;;;;;;;;4913716;29;20052;-67
2022/03/16 07:21:59;;;;;;;56.78;29.75;;;;;;;;;;4920187;29;20573;-69
2022/03/16 07:24:25;;;;;;;54.47;30.00;;;;;;;;;;4932625;29;20511;-68
2022/03/16 07:26:54;;;;;;;54.15;29.63;;;;;;;;;;4932810;29;20050;-67
2022/03/16 07:29:22;;;;;;;56.13;29.20;;;;;;;;;;4928373;29;20114;-67
2022/03/16 07:31:49;;;;;;;54.92;30.35;;;;;;;;;;4923043;29;20087;-68
2022/03/16 07:34:16;;;;;;;52.28;28.98;;;;;;;;;;4932895;29;20094;-69
2022/03/16 07:36:42;;;;;;;59.53;31.05;;;;;;;;;;4916544;29;20056;-68
2022/03/16 07:39:11;;;;;;;55.58;30.20;;;;;;;;;;4914071;29;20056;-69
2022/03/16 07:41:38;;;;;;;54.00;30.98;;;;;;;;;;4913389;29;20139;-67
2022/03/16 07:44:05;;;;;;;47.42;27.85;;;;;;;;;;4912982;29;20094;-67
2022/03/16 07:46:33;;;;;;;52.65;29.52;;;;;;;;;;4929328;29;20055;-68
2022/03/16 07:49:00;;;;;;;49.65;27.10;;;;;;;;;;4932247;29;20055;-66
2022/03/16 07:51:27;;;;;;;50.15;27.63;;;;;;;;;;4931838;29;20570;-67
2022/03/16 07:53:53;;;;;;;51.90;28.35;;;;;;;;;;4932640;29;20470;-67
2022/03/16 07:56:20;;;;;;;50.97;27.58;;;;;;;;;;4918057;29;20076;-66
2022/03/16 07:58:46;;;;;;;50.17;26.25;;;;;;;;;;4913455;29;20052;-67
2022/03/16 08:01:13;;;;;;;49.63;28.35;;;;;;;;;;4913284;29;20056;-68
2022/03/16 08:03:40;;;;;;;45.78;26.88;;;;;;;;;;4913254;29;20062;-66
2022/03/16 08:06:07;;;;;;;46.00;25.65;;;;;;;;;;4923081;29;20048;-68
2022/03/16 08:08:39;;;;;;;46.75;27.90;;;;;;;;;;4921612;29;20059;-66
2022/03/16 08:11:06;;;;;;;44.53;26.43;;;;;;;;;;4932253;29;20051;-67
2022/03/16 08:13:35;;;;;;;46.33;26.48;;;;;;;;;;4932028;29;20106;-66
2022/03/16 08:16:04;;;;;;;44.83;25.77;;;;;;;;;;4932257;29;20063;-67
2022/03/16 08:18:31;;;;;;;43.63;25.70;;;;;;;;;;4917255;29;20166;-70
2022/03/16 08:20:58;;;;;;;46.05;26.10;;;;;;;;;;4923158;29;20055;-73
2022/03/16 08:23:24;;;;;;;44.10;26.63;;;;;;;;;;4921164;29;20087;-75
2022/03/16 08:25:52;;;;;;;39.05;24.48;;;;;;;;;;4924999;29;20570;-73
2022/03/16 08:28:19;;;;;;;40.60;24.80;;;;;;;;;;4932909;29;20345;-77
2022/03/16 08:30:46;;;;;;;44.03;24.88;;;;;;;;;;4932229;29;20051;-74
2022/03/16 08:33:12;;;;;;;40.15;24.10;;;;;;;;;;4926480;29;20605;-76
2022/03/16 08:35:39;;;;;;;37.20;23.33;;;;;;;;;;4933395;29;20048;-71
2022/03/16 08:38:06;;;;;;;37.08;22.50;;;;;;;;;;4925704;29;20174;-73
2022/03/16 08:40:32;;;;;;;36.55;23.10;;;;;;;;;;4925041;29;20055;-75
2022/03/16 08:42:59;;;;;;;38.55;22.98;;;;;;;;;;4926295;29;20102;-73
2022/03/16 08:45:27;;;;;;;37.83;22.85;;;;;;;;;;4930021;29;20056;-73
2022/03/16 08:47:54;;;;;;;38.72;22.63;;;;;;;;;;4926963;29;20048;-72
2022/03/16 08:50:21;;;;;;;34.42;22.90;;;;;;;;;;4934506;29;20080;-72
2022/03/16 08:52:47;;;;;;;36.13;21.90;;;;;;;;;;4926708;28;20063;-72
2022/03/16 08:55:15;;;;;;;34.78;22.67;;;;;;;;;;4924453;29;20051;-72
2022/03/16 08:57:45;;;;;;;35.22;23.33;;;;;;;;;;4926190;29;20436;-71
2022/03/16 09:00:15;;;;;;;35.58;21.65;;;;;;;;;;4922770;29;20051;-71
2022/03/16 09:02:42;;;;;;;34.10;21.67;;;;;;;;;;4924802;29;20518;-71
2022/03/16 09:05:10;;;;;;;33.00;20.50;;;;;;;;;;4922473;29;20111;-74
2022/03/16 09:07:38;;;;;;;32.30;21.95;;;;;;;;;;4927077;29;20044;-74
2022/03/16 09:10:06;;;;;;;32.00;20.23;;;;;;;;;;4922670;29;20056;-73
2022/03/16 09:12:33;;;;;;;33.10;20.83;;;;;;;;;;4924043;29;20054;-72
2022/03/16 09:14:59;;;;;;;29.48;20.88;;;;;;;;;;4924713;29;20067;-73
2022/03/16 09:17:28;;;;;;;30.48;20.45;;;;;;;;;;4925386;29;20267;-72
2022/03/16 09:19:54;;;;;;;28.92;20.08;;;;;;;;;;4924236;29;20056;-73
2022/03/16 09:22:22;;;;;;;30.67;20.75;;;;;;;;;;4925413;29;20107;-72
2022/03/16 09:24:52;;;;;;;30.05;20.90;;;;;;;;;;4923948;29;20052;-72
2022/03/16 09:27:19;;;;;;;30.10;20.92;;;;;;;;;;4922932;29;20044;-70
2022/03/16 09:29:46;;;;;;;30.00;20.33;;;;;;;;;;4926361;29;20495;-71
2022/03/16 09:32:13;;;;;;;30.88;20.77;;;;;;;;;;4921994;29;20419;-72
2022/03/16 09:34:42;;;;;;;31.35;20.70;;;;;;;;;;4925716;29;20048;-72
2022/03/16 09:37:13;;;;;;;30.15;20.50;;;;;;;;;;4922959;29;20839;-72
2022/03/16 09:39:40;;;;;;;31.40;20.45;;;;;;;;;;4923172;29;20051;-72
2022/03/16 09:42:08;;;;;;;31.73;20.35;;;;;;;;;;4922551;29;20119;-69
2022/03/16 09:44:36;;;;;;;30.27;20.00;;;;;;;;;;4925534;29;20063;-68
2022/03/16 09:47:04;;;;;;;31.73;20.50;;;;;;;;;;4922349;29;20559;-67
2022/03/16 09:49:31;;;;;;;31.92;20.85;;;;;;;;;;4922441;29;20052;-72
2022/03/16 09:51:58;;;;;;;31.00;19.75;;;;;;;;;;4924947;29;20051;-68
2022/03/16 09:54:25;;;;;;;31.30;20.75;;;;;;;;;;4924808;29;20079;-74
2022/03/16 09:56:53;;;;;;;31.23;19.70;;;;;;;;;;4927420;29;20051;-70
2022/03/16 09:59:21;;;;;;;31.60;20.98;;;;;;;;;;4921677;29;20048;-70
2022/03/16 10:01:47;;;;;;;30.95;20.05;;;;;;;;;;4922695;29;20047;-70
2022/03/16 10:04:27;;;;;;;32.15;21.60;;;;;;;;;;4920931;29;20464;-68
2022/03/16 10:06:54;;;;;;;33.30;20.42;;;;;;;;;;4922117;29;20048;-70
2022/03/16 10:15:13;;;;;;;31.73;20.20;;;;;;;;;;4923381;28;20071;-71
2022/03/16 10:17:45;;;;;;;26.60;19.13;;;;;;;;;;4923064;29;20048;-69
2022/03/16 10:20:19;;;;;;;25.67;18.00;;;;;;;;;;4924221;29;20135;-71
2022/03/16 10:23:05;;;;;;;26.20;17.75;;;;;;;;;;4921862;29;20139;-71
2022/03/16 10:25:37;;;;;;;26.58;17.40;;;;;;;;;;4921417;29;20170;-69
2022/03/16 10:28:10;;;;;;;25.75;18.65;;;;;;;;;;4929554;29;20523;-71
2022/03/16 10:30:39;;;;;;;27.48;17.88;;;;;;;;;;4923114;29;20095;-75
2022/03/16 10:33:05;;;;;;;25.17;17.92;;;;;;;;;;4932605;29;20048;-73
2022/03/16 10:35:33;;;;;;;27.75;18.98;;;;;;;;;;4930730;29;20396;-73
2022/03/16 10:38:07;;;;;;;25.35;17.75;;;;;;;;;;4926175;29;20044;-72
2022/03/16 10:40:34;;;;;;;24.70;17.50;;;;;;;;;;4926329;29;20047;-73
2022/03/16 10:46:34;;;;;;;26.90;17.83;;;;;;;;;;4926173;29;20044;-71
2022/03/16 10:49:09;;;;;;;23.67;16.40;;;;;;;;;;4923832;29;20051;-70
2022/03/16 10:51:36;;;;;;;24.50;17.13;;;;;;;;;;4919754;29;20134;-67
2022/03/16 10:54:22;;;;;;;23.30;16.38;;;;;;;;;;4923281;29;20052;-69
2022/03/16 10:56:48;;;;;;;22.08;17.00;;;;;;;;;;4908654;29;20044;-67
2022/03/16 10:59:15;;;;;;;23.83;16.80;;;;;;;;;;4921772;29;20080;-66
2022/03/16 11:01:41;;;;;;;22.02;16.27;;;;;;;;;;4923289;29;20048;-68
2022/03/16 11:04:09;;;;;;;25.38;16.73;;;;;;;;;;4921955;23;20152;-65
2022/03/16 11:06:36;;;;;;;24.98;18.02;;;;;;;;;;4894549;29;20045;-66
2022/03/16 11:09:03;;;;;;;22.27;15.93;;;;;;;;;;4893997;29;20049;-68
2022/03/16 11:14:17;;;;;;;21.40;16.38;;;;;;;;;;4895735;29;20108;-64
2022/03/16 11:16:43;;;;;;;20.55;16.08;;;;;;;;;;4878630;29;20056;-68
2022/03/16 11:19:10;;;;;;;20.88;15.10;;;;;;;;;;4893162;29;20428;-66
2022/03/16 11:21:45;;;;;;;19.42;15.27;;;;;;;;;;4893775;29;20056;-66
2022/03/16 11:24:18;;;;;;;22.50;16.52;;;;;;;;;;4895366;29;20089;-69
2022/03/16 11:26:49;;;;;;;20.23;15.30;;;;;;;;;;4877569;29;20052;-69
2022/03/16 11:29:38;;;;;;;21.58;15.60;;;;;;;;;;4889166;29;20064;-69
2022/03/16 11:32:15;;;;;;;22.23;15.23;;;;;;;;;;4894837;29;20052;-69
2022/03/16 11:34:50;;;;;;;20.42;14.93;;;;;;;;;;4896322;29;20053;-70
2022/03/16 11:37:17;;;;;;;18.58;14.95;;;;;;;;;;4891988;29;20060;-69
2022/03/16 11:39:45;;;;;;;18.90;15.13;;;;;;;;;;4892872;29;20048;-70
2022/03/16 11:42:16;;;;;;;21.17;15.50;;;;;;;;;;4893249;29;20048;-70
2022/03/16 11:44:43;;;;;;;18.02;15.13;;;;;;;;;;4889358;29;20120;-69
2022/03/16 11:47:10;;;;;;;20.67;15.70;;;;;;;;;;4893475;29;20045;-68
2022/03/16 11:49:38;;;;;;;20.42;15.68;;;;;;;;;;4893732;29;20518;-76
2022/03/16 11:52:08;;;;;;;18.98;15.10;;;;;;;;;;4893927;29;20053;-75
2022/03/16 11:54:48;;;;;;;17.80;14.70;;;;;;;;;;4893035;29;20060;-74
2022/03/16 11:57:35;;;;;;;17.00;14.02;;;;;;;;;;4877668;29;20072;-73
2022/03/16 12:00:17;;;;;;;17.58;13.60;;;;;;;;;;4873145;29;20468;-74
2022/03/16 12:06:21;;;;;;;19.25;14.82;;;;;;;;;;4901109;29;20052;-78
2022/03/16 12:08:51;;;;;;;16.45;12.43;;;;;;;;;;4889103;29;20397;-78
2022/03/16 12:14:05;;;;;;;15.52;12.70;;;;;;;;;;4886538;29;20045;-78
2022/03/16 12:16:42;;;;;;;16.60;13.43;;;;;;;;;;4867836;29;20063;-78
2022/03/16 12:19:30;;;;;;;17.80;14.55;;;;;;;;;;4883778;29;20061;-78
2022/03/16 12:21:57;;;;;;;15.93;13.10;;;;;;;;;;4888421;29;20049;-78
2022/03/16 12:30:05;;;;;;;17.38;13.50;;;;;;;;;;4885280;29;20052;-78
2022/03/16 12:32:35;;;;;;;22.92;14.00;;;;;;;;;;4889481;29;20398;-79
2022/03/16 12:35:06;;;;;;;18.35;13.95;;;;;;;;;;4875772;29;20056;-79
2022/03/16 12:37:33;;;;;;;15.93;13.68;;;;;;;;;;4885714;29;20049;-78
2022/03/16 12:39:59;;;;;;;16.77;13.23;;;;;;;;;;4905332;29;20063;-79
2022/03/16 12:42:32;;;;;;;16.42;12.90;;;;;;;;;;4894205;29;20067;-78
2022/03/16 12:45:12;;;;;;;16.25;12.80;;;;;;;;;;4897871;29;20056;-78
2022/03/16 12:47:43;;;;;;;16.23;12.68;;;;;;;;;;4866215;29;20136;-79
2022/03/16 12:50:13;;;;;;;16.48;13.55;;;;;;;;;;4873140;29;20056;-80
2022/03/16 12:52:40;;;;;;;17.50;13.70;;;;;;;;;;4867593;29;20059;-79
2022/03/16 12:55:12;;;;;;;17.23;14.15;;;;;;;;;;4882843;29;20448;-79
2022/03/16 12:57:39;;;;;;;20.05;13.70;;;;;;;;;;4892405;29;20104;-79
2022/03/16 13:00:12;;;;;;;19.65;14.50;;;;;;;;;;4881749;29;20068;-79
2022/03/16 13:02:41;;;;;;;17.60;13.70;;;;;;;;;;4890398;29;20056;-79
2022/03/16 13:05:09;;;;;;;20.23;13.52;;;;;;;;;;4899186;29;20053;-79
2022/03/16 13:07:36;;;;;;;16.92;12.77;;;;;;;;;;4903387;29;20080;-79
2022/03/16 13:10:05;;;;;;;18.80;13.98;;;;;;;;;;4899140;29;20112;-79
2022/03/16 13:12:32;;;;;;;19.60;14.02;;;;;;;;;;4905281;29;20052;-79
2022/03/16 13:14:59;;;;;;;18.38;14.32;;;;;;;;;;4904470;29;20052;-79
2022/03/16 13:17:37;;;;;;;19.45;14.07;;;;;;;;;;4918679;29;20120;-79
2022/03/16 13:20:05;;;;;;;18.02;13.68;;;;;;;;;;4897512;29;20116;-79
2022/03/16 13:22:32;;;;;;;20.20;15.00;;;;;;;;;;4886650;29;20056;-79
2022/03/16 13:25:00;;;;;;;17.20;13.68;;;;;;;;;;4884952;29;20629;-79
2022/03/16 13:27:34;;;;;;;20.48;13.43;;;;;;;;;;4876384;29;20056;-80
2022/03/16 13:30:04;;;;;;;17.27;12.98;;;;;;;;;;4880941;29;20049;-79
2022/03/16 13:32:33;;;;;;;17.50;13.88;;;;;;;;;;4875320;29;20048;-79
2022/03/16 13:35:15;;;;;;;18.10;13.02;;;;;;;;;;4888603;29;20116;-79
2022/03/16 13:37:51;;;;;;;21.48;14.15;;;;;;;;;;4896170;29;20487;-80
2022/03/16 13:40:26;;;;;;;16.42;12.63;;;;;;;;;;4910899;29;20060;-79
2022/03/16 13:43:15;;;;;;;16.20;13.35;;;;;;;;;;4888309;29;20057;-80
2022/03/16 13:45:44;;;;;;;15.20;12.60;;;;;;;;;;4903416;29;20056;-79
2022/03/16 13:48:19;;;;;;;19.55;13.77;;;;;;;;;;4889178;29;20060;-79
2022/03/16 13:50:49;;;;;;;17.48;13.95;;;;;;;;;;4890050;29;20084;-80
2022/03/16 13:53:27;;;;;;;16.88;13.95;;;;;;;;;;4904963;29;20028;-79
2022/03/16 13:55:56;;;;;;;17.15;13.55;;;;;;;;;;4897541;29;20037;-78
2022/03/16 13:58:26;;;;;;;16.92;13.40;;;;;;;;;;4898492;29;20041;-78
2022/03/16 14:00:58;;;;;;;16.15;12.98;;;;;;;;;;4905954;29;20029;-79
2022/03/16 14:03:28;;;;;;;16.50;12.82;;;;;;;;;;4921245;29;20045;-79
2022/03/16 14:05:56;;;;;;;16.63;12.88;;;;;;;;;;4893769;29;20044;-78
2022/03/16 14:08:23;;;;;;;14.68;12.75;;;;;;;;;;4883708;29;20049;-79
2022/03/16 14:10:54;;;;;;;15.65;13.13;;;;;;;;;;4889107;29;20061;-79
2022/03/16 14:13:23;;;;;;;17.42;13.50;;;;;;;;;;4891038;29;20168;-80
2022/03/16 14:16:10;;;;;;;16.50;12.65;;;;;;;;;;4890304;29;20061;-79
2022/03/16 14:18:37;;;;;;;17.40;13.10;;;;;;;;;;4874624;29;20053;-79
2022/03/16 14:21:04;;;;;;;15.75;12.65;;;;;;;;;;4919278;29;20049;-79
2022/03/16 14:23:32;;;;;;;16.85;13.43;;;;;;;;;;4927549;29;20048;-80
2022/03/16 14:26:01;;;;;;;16.55;13.07;;;;;;;;;;4906102;29;20052;-80
2022/03/16 14:28:28;;;;;;;17.40;12.68;;;;;;;;;;4898248;29;20064;-79
2022/03/16 14:30:55;;;;;;;14.77;12.52;;;;;;;;;;4879678;29;20045;-79
2022/03/16 14:33:24;;;;;;;17.63;13.45;;;;;;;;;;4898070;29;20116;-80
2022/03/16 14:35:54;;;;;;;13.55;12.13;;;;;;;;;;4883023;29;20109;-79
2022/03/16 14:38:21;;;;;;;15.60;12.25;;;;;;;;;;4898530;29;20055;-79
2022/03/16 14:40:58;;;;;;;15.45;12.20;;;;;;;;;;4895310;29;20061;-79
2022/03/16 14:43:27;;;;;;;13.93;12.43;;;;;;;;;;4885999;29;20061;-79
2022/03/16 14:45:54;;;;;;;15.75;12.15;;;;;;;;;;4894318;29;20061;-80